Wetterdaten: aktuell Dienstag, 17.09.2019 05:39
Datum Zeit Temp. A. Feuchte A. Luftdruck Regen Wind Richtung Richtung Taupunkt Windchill Windben
17.09.2019 05:39 12,9 C 90 % 1017,8 hPa 0,0 l/m 4,8 km/h (1 Bft) S-SW 202 11,3 C 12,9 C 4,8 km/h (1 Bft)
17.09.2019 04:39 14,4 C 87 % 1017,8 hPa 0,0 l/m 0,0 km/h (0 Bft) N 0 12,3 C 14,4 C 0,0 km/h (0 Bft)
17.09.2019 03:39 14,7 C 87 % 1017,7 hPa 0,0 l/m 0,0 km/h (0 Bft) N 0 12,6 C 14,7 C 0,0 km/h (0 Bft)
17.09.2019 02:39 15,2 C 87 % 1017,7 hPa 0,0 l/m 0,0 km/h (0 Bft) N 0 13,0 C 15,2 C 0,0 km/h (0 Bft)
17.09.2019 01:39 15,7 C 90 % 1017,7 hPa 0,0 l/m 1,6 km/h (1 Bft) S-SW 202 14,1 C 15,7 C 1,6 km/h (1 Bft)
17.09.2019 00:39 16,6 C 86 % 1018,2 hPa 0,0 l/m 0,0 km/h (0 Bft) N 0 14,2 C 16,6 C 1,6 km/h (1 Bft)
16.09.2019 23:39 16,7 C 85 % 1018,2 hPa 0,0 l/m 3,2 km/h (1 Bft) S-SW 202 14,2 C 16,7 C 3,2 km/h (1 Bft)
16.09.2019 22:39 18,9 C 76 % 1018,4 hPa 0,0 l/m 1,6 km/h (1 Bft) W-NW 292 14,6 C 18,9 C 4,8 km/h (1 Bft)
16.09.2019 21:39 17,2 C 92 % 1018,5 hPa 0,0 l/m 4,8 km/h (1 Bft) W-SW 247 15,9 C 17,2 C 4,8 km/h (1 Bft)
16.09.2019 20:39 18,2 C 90 % 1018,5 hPa 0,0 l/m 3,2 km/h (1 Bft) W-SW 247 16,5 C 18,2 C 4,8 km/h (1 Bft)
16.09.2019 19:39 18,7 C 87 % 1018,1 hPa 0,0 l/m 1,6 km/h (1 Bft) NO 45 16,5 C 18,7 C 1,6 km/h (1 Bft)
16.09.2019 18:39 20,2 C 84 % 1017,6 hPa 0,0 l/m 0,0 km/h (0 Bft) N 0 17,4 C 20,2 C 1,6 km/h (1 Bft)
16.09.2019 17:39 23,4 C 71 % 1017,5 hPa 0,0 l/m 1,6 km/h (1 Bft) N-NW 337 17,8 C 23,4 C 3,2 km/h (1 Bft)
16.09.2019 16:39 25,1 C 63 % 1017,6 hPa 0,0 l/m 4,8 km/h (1 Bft) SW 225 17,5 C 25,1 C 6,4 km/h (2 Bft)
16.09.2019 15:39 25,2 C 64 % 1017,9 hPa 0,0 l/m 3,2 km/h (1 Bft) NW 315 17,9 C 25,2 C 6,4 km/h (2 Bft)
16.09.2019 14:39 25,2 C 65 % 1018,4 hPa 0,0 l/m 6,4 km/h (2 Bft) NW 315 18,1 C 25,2 C 12,9 km/h (3 Bft)
16.09.2019 13:39 24,8 C 62 % 1018,8 hPa 0,0 l/m 11,3 km/h (2 Bft) NW 315 17,0 C 23,7 C 16,1 km/h (3 Bft)
16.09.2019 12:39 24,4 C 65 % 1019,4 hPa 0,0 l/m 4,8 km/h (1 Bft) W-NW 292 17,4 C 24,4 C 6,4 km/h (2 Bft)
16.09.2019 11:39 24,2 C 69 % 1020,3 hPa 0,0 l/m 6,4 km/h (2 Bft) S-SW 202 18,1 C 24,2 C 9,7 km/h (2 Bft)
16.09.2019 10:39 22,8 C 67 % 1020,9 hPa 0,0 l/m 3,2 km/h (1 Bft) S 180 16,3 C 22,8 C 4,8 km/h (1 Bft)
16.09.2019 09:39 20,1 C 82 % 1021,2 hPa 0,0 l/m 3,2 km/h (1 Bft) S 180 16,9 C 20,1 C 6,4 km/h (2 Bft)
16.09.2019 08:39 16,8 C 90 % 1021,2 hPa 0,0 l/m 0,0 km/h (0 Bft) N 0 15,1 C 16,8 C 0,0 km/h (0 Bft)
16.09.2019 07:39 13,5 C 95 % 1021,4 hPa 0,2 l/m 0,0 km/h (0 Bft) N 0 12,7 C 13,5 C 0,0 km/h (0 Bft)
16.09.2019 06:39 12,1 C 95 % 1021,4 hPa 0,0 l/m 0,0 km/h (0 Bft) N 0 11,3 C 12,1 C 0,0 km/h (0 Bft)
16.09.2019 06:00 11,3 C 95 % 1021,3 hPa 0,0 l/m 3,2 km/h (1 Bft) SW 225 10,5 C 11,3 C 3,2 km/h (1 Bft)
_ Min-Zeit 06:00 13:07 17:20 - 06:12 - - 06:25 06:00 06:13
Minimum _ 11,3 C 59 % 1017,3 hPa - 0,0 km/h (0 Bft) - - 10,4 C 11,3 C 0,0 km/h (0 Bft)
_ Max-Zeit 13:49 06:00 06:10 07:16 12:51 - - 15:30 13:51 12:48
Maximum _ 25,4 C 95 % 1021,5 hPa 0,2 l/m 12,9 km/h
W-SW (3 Bft)
- - 18,8 C 25,4 C 17,7 km/h
S-SW (3 Bft)
Durchschnitt _ 18,5 C 82 % 1019,1 hPa #0,2 l/m 2,7 km/h (1 Bft) S-SW - 15,0 C 18,4 C 4,1 km/h (1 Bft)